createdAt,value
2022-07-30T00:01:39.420Z,63.76
2022-07-30T00:04:05.892Z,63.83
2022-07-30T00:06:32.886Z,63.95
2022-07-30T00:08:59.558Z,63.63
2022-07-30T00:11:28.079Z,63.63
2022-07-30T00:13:54.744Z,63.61
2022-07-30T00:16:21.341Z,63.68
2022-07-30T00:18:47.903Z,63.60
2022-07-30T00:21:31.481Z,63.56
2022-07-30T00:24:02.437Z,63.61
2022-07-30T00:26:29.129Z,63.67
2022-07-30T00:28:55.528Z,63.52
2022-07-30T00:31:21.963Z,63.65
2022-07-30T00:33:48.385Z,63.38
2022-07-30T00:36:14.838Z,63.45
2022-07-30T00:38:41.276Z,63.31
2022-07-30T00:41:07.728Z,63.51
2022-07-30T00:43:34.112Z,63.39
2022-07-30T00:46:00.589Z,63.68
2022-07-30T00:48:27.076Z,63.47
2022-07-30T00:50:53.517Z,63.52
2022-07-30T00:53:19.951Z,63.42
2022-07-30T00:55:46.359Z,63.35
2022-07-30T00:58:12.844Z,63.19
2022-07-30T01:00:39.254Z,63.04
2022-07-30T01:03:06.043Z,62.86
2022-07-30T01:05:32.576Z,62.75
2022-07-30T01:07:59.388Z,62.82
2022-07-30T01:10:25.806Z,62.77
2022-07-30T01:12:54.913Z,62.53
2022-07-30T01:15:21.647Z,62.56
2022-07-30T01:17:53.016Z,62.49
2022-07-30T01:20:24.623Z,62.32
2022-07-30T01:22:51.678Z,62.35
2022-07-30T01:25:36.871Z,62.37
2022-07-30T01:28:06.217Z,62.38
2022-07-30T01:30:34.954Z,62.19
2022-07-30T01:33:01.836Z,62.33
2022-07-30T01:35:29.363Z,62.29
2022-07-30T01:37:56.753Z,62.39
2022-07-30T01:40:24.127Z,62.45
2022-07-30T01:42:54.988Z,62.50
2022-07-30T01:45:23.623Z,62.47
2022-07-30T01:47:52.303Z,62.34
2022-07-30T01:50:19.935Z,62.46
2022-07-30T01:52:49.059Z,62.60
2022-07-30T01:55:17.556Z,62.67
2022-07-30T01:57:45.536Z,62.53
2022-07-30T02:00:12.566Z,62.42
2022-07-30T02:02:41.169Z,62.38
2022-07-30T02:05:08.712Z,62.46
2022-07-30T02:07:35.080Z,62.37
2022-07-30T02:10:14.287Z,62.56
2022-07-30T02:12:46.290Z,62.71
2022-07-30T02:15:21.714Z,62.55
2022-07-30T02:18:11.190Z,62.64
2022-07-30T02:20:38.415Z,62.56
2022-07-30T02:23:10.480Z,62.73
2022-07-30T02:25:38.881Z,62.73
2022-07-30T02:28:07.518Z,62.65
2022-07-30T02:30:36.188Z,62.74
2022-07-30T02:33:04.782Z,62.76
2022-07-30T02:35:31.918Z,62.64
2022-07-30T02:37:59.888Z,62.90
2022-07-30T02:40:27.061Z,62.88
2022-07-30T02:42:53.876Z,62.88
2022-07-30T02:45:21.224Z,62.91
2022-07-30T02:47:50.488Z,62.88
2022-07-30T02:50:18.119Z,62.89
2022-07-30T02:52:45.264Z,63.00
2022-07-30T02:55:12.354Z,62.69
2022-07-30T02:57:43.242Z,63.09
2022-07-30T03:00:10.888Z,62.89
2022-07-30T03:02:38.871Z,62.83
2022-07-30T03:05:06.560Z,63.10
2022-07-30T03:07:34.702Z,62.83
2022-07-30T03:10:01.505Z,62.90
2022-07-30T03:12:29.974Z,62.98
2022-07-30T03:14:56.750Z,63.15
2022-07-30T03:17:24.085Z,63.14
2022-07-30T03:19:50.658Z,62.96
2022-07-30T03:22:17.899Z,63.09
2022-07-30T03:24:45.471Z,63.06
2022-07-30T03:27:13.768Z,63.09
2022-07-30T03:29:41.644Z,63.10
2022-07-30T03:32:08.912Z,63.42
2022-07-30T03:34:39.875Z,63.41
2022-07-30T03:37:07.909Z,63.42
2022-07-30T03:39:35.505Z,63.30
2022-07-30T03:42:02.722Z,63.41
2022-07-30T03:44:30.662Z,63.31
2022-07-30T03:46:57.825Z,63.35
2022-07-30T03:49:25.500Z,63.26
2022-07-30T03:51:53.475Z,63.53
2022-07-30T03:54:20.616Z,63.41
2022-07-30T03:56:47.082Z,63.71
2022-07-30T03:59:13.975Z,63.62
2022-07-30T04:01:40.534Z,63.62
2022-07-30T04:04:11.291Z,63.66
2022-07-30T04:06:40.875Z,63.59
2022-07-30T04:09:08.349Z,63.59
2022-07-30T04:11:40.652Z,63.68
2022-07-30T04:14:08.466Z,63.85
2022-07-30T04:17:07.267Z,63.60
2022-07-30T04:19:38.860Z,63.57
2022-07-30T04:22:06.046Z,63.55
2022-07-30T04:24:33.303Z,63.86
2022-07-30T04:27:00.761Z,63.70
2022-07-30T04:29:27.637Z,63.67
2022-07-30T04:31:54.625Z,63.60
2022-07-30T04:34:21.103Z,63.76
2022-07-30T04:36:47.495Z,64.01
2022-07-30T04:39:13.990Z,64.00
2022-07-30T04:41:49.023Z,63.85
2022-07-30T04:44:17.115Z,63.95
2022-07-30T04:46:43.578Z,64.05
2022-07-30T04:49:11.756Z,63.86
2022-07-30T04:51:38.431Z,64.06
2022-07-30T04:54:07.163Z,64.04
2022-07-30T04:56:34.003Z,64.01
2022-07-30T04:59:01.506Z,63.99
2022-07-30T05:01:37.144Z,63.87
2022-07-30T05:04:08.362Z,63.76
2022-07-30T05:06:35.589Z,63.66
2022-07-30T05:09:02.303Z,63.63
2022-07-30T05:11:28.737Z,63.65
2022-07-30T05:13:55.123Z,63.71
2022-07-30T05:16:21.616Z,63.71
2022-07-30T05:18:48.222Z,63.71
2022-07-30T05:21:14.618Z,63.55
2022-07-30T05:23:41.059Z,63.46
2022-07-30T05:26:19.115Z,63.58
2022-07-30T05:28:45.557Z,63.52
2022-07-30T05:31:16.107Z,63.63
2022-07-30T05:33:42.926Z,63.65
2022-07-30T05:36:09.827Z,63.63
2022-07-30T05:38:36.241Z,63.45
2022-07-30T05:41:02.681Z,63.58
2022-07-30T05:43:29.059Z,63.48
2022-07-30T05:45:55.501Z,63.66
2022-07-30T05:48:21.938Z,63.67
2022-07-30T05:50:48.300Z,63.68
2022-07-30T05:53:14.674Z,63.65
2022-07-30T05:55:41.080Z,63.54
2022-07-30T05:58:07.580Z,63.60
2022-07-30T06:00:35.592Z,63.32
2022-07-30T06:03:02.417Z,63.67
2022-07-30T06:05:29.071Z,63.68
2022-07-30T06:07:55.435Z,63.61
2022-07-30T06:10:21.840Z,63.61
2022-07-30T06:12:48.228Z,63.78
2022-07-30T06:15:14.984Z,63.38
2022-07-30T06:17:52.033Z,63.76
2022-07-30T06:20:27.890Z,63.84
2022-07-30T06:22:54.284Z,63.74
2022-07-30T06:25:20.759Z,63.83
2022-07-30T06:27:47.131Z,63.87
2022-07-30T06:30:13.670Z,63.76
2022-07-30T06:32:40.144Z,63.85
2022-07-30T06:35:06.912Z,63.83
2022-07-30T06:37:58.712Z,63.76
2022-07-30T06:40:19.736Z,63.96
2022-07-30T06:42:46.146Z,64.04
2022-07-30T06:45:12.642Z,63.90
2022-07-30T06:47:39.035Z,63.94
2022-07-30T06:50:05.739Z,63.96
2022-07-30T06:52:32.117Z,64.07
2022-07-30T06:54:58.542Z,64.02
2022-07-30T06:57:24.932Z,64.06
2022-07-30T06:59:56.688Z,64.07
2022-07-30T07:02:23.847Z,64.05
2022-07-30T07:04:50.234Z,63.89
2022-07-30T07:07:31.489Z,64.02
2022-07-30T07:10:03.759Z,63.95
2022-07-30T07:12:30.141Z,64.25
2022-07-30T07:14:56.561Z,64.18
2022-07-30T07:17:23.040Z,64.01
2022-07-30T07:20:01.529Z,64.35
2022-07-30T07:22:28.612Z,64.50
2022-07-30T07:24:54.994Z,64.48
2022-07-30T07:27:21.400Z,64.53
2022-07-30T07:30:05.023Z,64.64
2022-07-30T07:32:33.232Z,64.75
2022-07-30T07:34:59.613Z,64.69
2022-07-30T07:37:25.994Z,64.45
2022-07-30T07:39:52.426Z,64.45
2022-07-30T07:42:18.821Z,64.36
2022-07-30T07:44:45.245Z,64.92
2022-07-30T07:47:11.636Z,65.07
2022-07-30T07:49:38.029Z,64.61
2022-07-30T07:52:04.563Z,64.79
2022-07-30T07:54:30.928Z,63.80
2022-07-30T07:56:57.418Z,63.74
2022-07-30T07:59:25.458Z,64.70
2022-07-30T08:02:03.812Z,65.08
2022-07-30T08:04:30.651Z,65.31
2022-07-30T08:06:57.132Z,63.58
2022-07-30T08:09:23.567Z,63.58
2022-07-30T08:11:49.994Z,64.57
2022-07-30T08:14:16.479Z,64.74
2022-07-30T08:16:42.930Z,64.50
2022-07-30T08:19:09.754Z,64.88
2022-07-30T08:21:36.162Z,65.17
2022-07-30T08:24:02.564Z,65.07
2022-07-30T08:26:28.976Z,65.09
2022-07-30T08:28:55.597Z,64.50
2022-07-30T08:31:22.018Z,64.77
2022-07-30T08:33:48.404Z,65.13
2022-07-30T08:36:14.832Z,65.35
2022-07-30T08:38:41.227Z,65.57
2022-07-30T08:41:07.768Z,64.77
2022-07-30T08:43:35.374Z,64.88
2022-07-30T08:46:02.289Z,64.87
2022-07-30T08:48:29.533Z,64.87
2022-07-30T08:50:56.552Z,65.23
2022-07-30T08:53:23.569Z,64.60
2022-07-30T08:55:49.991Z,63.79
2022-07-30T08:58:30.023Z,63.96
2022-07-30T09:03:28.186Z,63.38
2022-07-30T09:05:54.555Z,62.60
2022-07-30T09:08:21.045Z,62.83
2022-07-30T09:10:53.004Z,63.09
2022-07-30T09:13:30.344Z,63.49
2022-07-30T09:15:57.091Z,62.65
2022-07-30T09:18:28.535Z,62.89
2022-07-30T09:20:54.988Z,63.56
2022-07-30T09:23:21.628Z,63.32
2022-07-30T09:25:48.900Z,63.43
2022-07-30T09:28:16.114Z,63.94
2022-07-30T09:30:43.947Z,63.31
2022-07-30T09:33:10.429Z,63.48
2022-07-30T09:35:36.917Z,63.32
2022-07-30T09:38:06.651Z,63.90
2022-07-30T09:40:33.757Z,63.95
2022-07-30T09:43:04.681Z,63.69
2022-07-30T09:45:34.751Z,63.87
2022-07-30T09:48:02.206Z,64.06
2022-07-30T09:50:29.903Z,64.30
2022-07-30T09:53:06.318Z,64.00
2022-07-30T09:55:34.124Z,64.12
2022-07-30T09:58:01.978Z,64.45
2022-07-30T10:00:30.105Z,64.25
2022-07-30T10:02:57.432Z,64.66
2022-07-30T10:05:24.999Z,64.49
2022-07-30T10:07:52.939Z,64.21
2022-07-30T10:10:20.828Z,64.68
2022-07-30T10:12:50.369Z,64.63
2022-07-30T10:15:18.835Z,64.96
2022-07-30T10:17:45.537Z,64.99
2022-07-30T10:20:14.884Z,65.03
2022-07-30T10:22:42.266Z,64.94
2022-07-30T10:25:11.500Z,65.10
2022-07-30T10:27:42.966Z,65.25
2022-07-30T10:30:12.399Z,64.90
2022-07-30T10:32:42.319Z,64.88
2022-07-30T10:35:09.078Z,64.97
2022-07-30T10:37:37.315Z,64.96
2022-07-30T10:40:07.078Z,64.65
2022-07-30T10:42:33.438Z,64.76
2022-07-30T10:45:02.847Z,64.86
2022-07-30T10:47:33.427Z,64.89
2022-07-30T10:50:06.271Z,65.17
2022-07-30T10:52:45.075Z,64.95
2022-07-30T10:55:15.794Z,64.38
2022-07-30T10:57:58.278Z,64.48
2022-07-30T11:00:25.511Z,64.84
2022-07-30T11:03:14.956Z,64.82
2022-07-30T11:05:45.417Z,65.00
2022-07-30T11:08:31.931Z,65.38
2022-07-30T11:10:59.041Z,65.15
2022-07-30T11:14:01.174Z,65.45
2022-07-30T11:16:33.666Z,65.52
2022-07-30T11:19:50.288Z,64.93
2022-07-30T11:22:09.293Z,64.87
2022-07-30T11:24:47.646Z,64.68
2022-07-30T11:27:36.301Z,65.07
2022-07-30T11:30:04.231Z,65.48
2022-07-30T11:32:32.117Z,65.37
2022-07-30T11:35:18.802Z,65.09
2022-07-30T11:37:54.234Z,65.41
2022-07-30T11:40:25.991Z,65.57
2022-07-30T11:43:13.468Z,65.71
2022-07-30T11:45:40.161Z,65.91
2022-07-30T11:48:09.894Z,65.50
2022-07-30T11:50:36.371Z,65.25
2022-07-30T11:53:04.508Z,65.30
2022-07-30T11:55:32.995Z,65.25
2022-07-30T11:58:01.027Z,65.51
2022-07-30T12:00:41.645Z,65.62
2022-07-30T12:03:12.579Z,65.96
2022-07-30T12:05:39.437Z,66.10
2022-07-30T12:08:05.964Z,66.37
2022-07-30T12:10:32.437Z,66.24
2022-07-30T12:13:12.427Z,66.15
2022-07-30T12:15:40.588Z,65.82
2022-07-30T12:20:55.093Z,66.26
2022-07-30T12:23:24.215Z,66.35
2022-07-30T12:25:51.168Z,66.79
2022-07-30T12:28:28.713Z,66.76
2022-07-30T12:30:56.503Z,66.78
2022-07-30T12:33:23.399Z,66.33
2022-07-30T12:35:51.298Z,66.22
2022-07-30T12:38:18.528Z,65.77
2022-07-30T12:41:02.765Z,65.94
2022-07-30T12:43:45.867Z,66.02
2022-07-30T12:46:15.019Z,66.11
2022-07-30T12:48:50.767Z,66.38
2022-07-30T12:51:17.219Z,66.46
2022-07-30T12:53:43.683Z,66.25
2022-07-30T12:56:20.389Z,66.20
2022-07-30T12:58:47.105Z,66.28
2022-07-30T13:01:15.806Z,66.46
2022-07-30T13:03:43.130Z,66.44
2022-07-30T13:06:13.995Z,66.58
2022-07-30T13:08:52.696Z,66.59
2022-07-30T13:11:19.919Z,66.50
2022-07-30T13:13:46.690Z,66.88
2022-07-30T13:16:13.825Z,66.94
2022-07-30T13:18:40.703Z,66.79
2022-07-30T13:21:09.230Z,66.50
2022-07-30T13:23:39.265Z,66.38
2022-07-30T13:26:07.119Z,66.66
2022-07-30T13:28:34.747Z,66.63
2022-07-30T13:31:01.530Z,66.49
2022-07-30T13:33:28.047Z,66.30
2022-07-30T13:35:54.503Z,66.14
2022-07-30T13:38:20.903Z,66.06
2022-07-30T13:40:48.395Z,66.44
2022-07-30T13:43:14.840Z,66.90
2022-07-30T13:45:41.520Z,66.93
2022-07-30T13:48:08.010Z,66.77
2022-07-30T13:50:34.516Z,67.15
2022-07-30T13:53:02.531Z,66.86
2022-07-30T13:55:29.264Z,67.07
2022-07-30T13:57:55.779Z,66.83
2022-07-30T14:00:22.989Z,65.63
2022-07-30T14:02:49.479Z,65.32
2022-07-30T14:05:16.242Z,65.92
2022-07-30T14:07:42.732Z,65.14
2022-07-30T14:10:09.544Z,65.61
2022-07-30T14:12:36.263Z,65.40
2022-07-30T14:15:02.742Z,65.23
2022-07-30T14:17:29.285Z,65.58
2022-07-30T14:19:56.065Z,65.70
2022-07-30T14:22:22.583Z,65.63
2022-07-30T14:24:48.965Z,65.27
2022-07-30T14:27:15.438Z,65.26
2022-07-30T14:29:41.836Z,65.04
2022-07-30T14:32:08.227Z,64.27
2022-07-30T14:34:34.651Z,64.30
2022-07-30T14:37:01.889Z,64.59
2022-07-30T14:39:28.450Z,64.32
2022-07-30T14:41:56.151Z,64.22
2022-07-30T14:44:23.045Z,64.35
2022-07-30T14:46:51.788Z,64.30
2022-07-30T14:49:19.620Z,63.88
2022-07-30T14:51:46.630Z,64.49
2022-07-30T14:54:13.323Z,64.35
2022-07-30T14:56:40.144Z,64.25
2022-07-30T14:59:06.550Z,63.88
2022-07-30T15:01:34.185Z,64.28
2022-07-30T15:04:00.611Z,64.00
2022-07-30T15:06:27.524Z,63.61
2022-07-30T15:08:54.030Z,63.26
2022-07-30T15:11:21.259Z,63.30
2022-07-30T15:13:50.063Z,63.79
2022-07-30T15:16:17.188Z,63.80
2022-07-30T15:18:43.668Z,62.98
2022-07-30T15:21:10.035Z,63.35
2022-07-30T15:23:36.444Z,63.53
2022-07-30T15:26:02.810Z,63.25
2022-07-30T15:28:29.219Z,63.32
2022-07-30T15:30:55.856Z,63.74
2022-07-30T15:33:22.413Z,63.29
2022-07-30T15:35:48.882Z,63.50
2022-07-30T15:38:15.488Z,64.32
2022-07-30T15:40:43.024Z,63.69
2022-07-30T15:43:10.381Z,64.23
2022-07-30T15:45:51.221Z,63.56
2022-07-30T15:48:27.035Z,63.69
2022-07-30T15:50:59.531Z,63.48
2022-07-30T15:53:25.911Z,63.94
2022-07-30T15:55:52.345Z,63.39
2022-07-30T15:58:18.694Z,64.26
2022-07-30T16:00:45.140Z,64.01
2022-07-30T16:03:11.717Z,64.04
2022-07-30T16:05:52.575Z,63.99
2022-07-30T16:08:19.979Z,64.17
2022-07-30T16:10:46.444Z,64.12
2022-07-30T16:13:12.969Z,64.05
2022-07-30T16:15:39.336Z,63.98
2022-07-30T16:18:06.438Z,63.84
2022-07-30T16:20:33.147Z,64.13
2022-07-30T16:22:59.664Z,64.09
2022-07-30T16:25:26.480Z,63.76
2022-07-30T16:27:53.273Z,64.01
2022-07-30T16:30:19.818Z,64.22
2022-07-30T16:32:46.302Z,63.57
2022-07-30T16:35:13.400Z,63.86
2022-07-30T16:37:39.991Z,64.05
2022-07-30T16:40:06.639Z,64.24
2022-07-30T16:42:33.054Z,64.15
2022-07-30T16:44:59.504Z,64.48
2022-07-30T16:47:26.001Z,64.20
2022-07-30T16:49:52.512Z,64.61
2022-07-30T16:52:19.045Z,64.30
2022-07-30T16:54:45.519Z,64.07
2022-07-30T16:57:11.929Z,64.25
2022-07-30T16:59:38.399Z,64.52
2022-07-30T17:02:08.649Z,64.35
2022-07-30T17:04:35.492Z,63.59
2022-07-30T17:07:01.938Z,63.77
2022-07-30T17:09:28.380Z,64.21
2022-07-30T17:12:03.390Z,64.27
2022-07-30T17:14:30.311Z,64.48
2022-07-30T17:16:56.721Z,64.89
2022-07-30T17:19:23.111Z,64.59
2022-07-30T17:21:49.547Z,64.77
2022-07-30T17:24:16.038Z,64.72
2022-07-30T17:26:46.747Z,65.07
2022-07-30T17:29:16.680Z,65.23
2022-07-30T17:31:44.602Z,65.13
2022-07-30T17:34:13.684Z,64.74
2022-07-30T17:36:51.709Z,64.61
2022-07-30T17:40:26.246Z,63.96
2022-07-30T17:42:05.986Z,64.47
2022-07-30T17:44:32.474Z,64.62
2022-07-30T17:46:59.105Z,64.68
2022-07-30T17:49:25.533Z,64.96
2022-07-30T17:51:52.033Z,65.46
2022-07-30T17:54:18.413Z,65.48
2022-07-30T17:56:44.955Z,65.39
2022-07-30T17:59:13.943Z,65.38
2022-07-30T18:01:40.564Z,65.50
2022-07-30T18:04:07.052Z,65.60
2022-07-30T18:06:33.450Z,65.55
2022-07-30T18:08:59.832Z,65.50
2022-07-30T18:11:26.207Z,65.50
2022-07-30T18:13:52.787Z,65.59
2022-07-30T18:16:19.324Z,65.58
2022-07-30T18:18:45.679Z,65.66
2022-07-30T18:21:12.097Z,65.66
2022-07-30T18:23:38.517Z,65.96
2022-07-30T18:26:04.928Z,66.09
2022-07-30T18:28:31.580Z,66.06
2022-07-30T18:30:58.005Z,66.26
2022-07-30T18:33:24.486Z,66.30
2022-07-30T18:35:51.286Z,66.22
2022-07-30T18:38:18.151Z,66.35
2022-07-30T18:40:45.141Z,66.38
2022-07-30T18:43:11.566Z,66.03
2022-07-30T18:45:38.032Z,65.69
2022-07-30T18:48:04.842Z,65.66
2022-07-30T18:50:31.428Z,65.22
2022-07-30T18:52:57.832Z,65.00
2022-07-30T18:55:24.312Z,65.86
2022-07-30T18:57:52.390Z,66.26
2022-07-30T19:00:35.077Z,66.21
2022-07-30T19:03:02.343Z,65.74
2022-07-30T19:05:28.835Z,65.81
2022-07-30T19:07:58.101Z,65.53
2022-07-30T19:10:26.106Z,65.46
2022-07-30T19:12:52.983Z,65.41
2022-07-30T19:15:19.464Z,65.38
2022-07-30T19:17:47.049Z,65.49
2022-07-30T19:20:13.598Z,65.46
2022-07-30T19:22:41.576Z,65.58
2022-07-30T19:25:08.449Z,65.61
2022-07-30T19:27:34.878Z,65.76
2022-07-30T19:30:01.319Z,65.68
2022-07-30T19:32:30.122Z,65.63
2022-07-30T19:34:56.721Z,65.54
2022-07-30T19:37:23.755Z,65.68
2022-07-30T19:40:06.235Z,65.84
2022-07-30T19:42:33.726Z,65.56
2022-07-30T19:45:01.160Z,65.50
2022-07-30T19:50:17.136Z,65.82
2022-07-30T19:52:51.066Z,65.75
2022-07-30T19:55:30.759Z,65.71
2022-07-30T19:58:01.279Z,65.66
2022-07-30T20:00:29.900Z,65.78
2022-07-30T20:02:56.870Z,65.83
2022-07-30T20:05:24.690Z,65.85
2022-07-30T20:07:51.540Z,65.66
2022-07-30T20:10:19.416Z,65.93
2022-07-30T20:12:49.445Z,65.99
2022-07-30T20:15:16.962Z,65.92
2022-07-30T20:17:43.395Z,65.79
2022-07-30T20:20:12.865Z,65.89
2022-07-30T20:22:39.453Z,65.89
2022-07-30T20:25:07.224Z,65.97
2022-07-30T20:27:36.288Z,65.89
2022-07-30T20:30:05.710Z,65.98
2022-07-30T20:32:32.183Z,66.08
2022-07-30T20:34:58.549Z,65.95
2022-07-30T20:37:27.339Z,65.84
2022-07-30T20:39:54.846Z,65.91
2022-07-30T20:42:23.893Z,66.02
2022-07-30T20:44:51.359Z,66.09
2022-07-30T20:47:28.230Z,65.96
2022-07-30T20:50:05.164Z,66.02
2022-07-30T20:52:36.339Z,65.98
2022-07-30T20:55:02.984Z,65.91
2022-07-30T20:57:57.099Z,65.94
2022-07-30T21:00:18.644Z,66.03
2022-07-30T21:02:46.681Z,66.06
2022-07-30T21:08:05.399Z,66.06
2022-07-30T21:10:33.148Z,66.10
2022-07-30T21:13:03.320Z,66.10
2022-07-30T21:16:01.910Z,66.04
2022-07-30T21:18:29.641Z,66.04
2022-07-30T21:20:57.264Z,66.02
2022-07-30T21:23:23.726Z,66.14
2022-07-30T21:26:02.043Z,65.95
2022-07-30T21:28:29.782Z,66.26
2022-07-30T21:31:01.867Z,66.02
2022-07-30T21:33:31.303Z,66.32
2022-07-30T21:36:14.749Z,66.15
2022-07-30T21:38:42.615Z,66.03
2022-07-30T21:41:13.815Z,66.30
2022-07-30T21:43:41.369Z,66.37
2022-07-30T21:46:08.056Z,66.28
2022-07-30T21:48:36.942Z,66.51
2022-07-30T21:51:03.559Z,66.32
2022-07-30T21:53:45.974Z,66.30
2022-07-30T21:56:13.118Z,66.51
2022-07-30T21:58:39.629Z,66.69
2022-07-30T22:01:16.786Z,66.60
2022-07-30T22:04:03.129Z,66.61
2022-07-30T22:06:30.358Z,66.81
2022-07-30T22:08:56.887Z,66.69
2022-07-30T22:11:23.428Z,66.72
2022-07-30T22:13:51.188Z,66.92
2022-07-30T22:16:21.786Z,66.79
2022-07-30T22:18:48.479Z,66.79
2022-07-30T22:21:14.879Z,66.84
2022-07-30T22:23:54.831Z,67.00
2022-07-30T22:26:26.482Z,66.82
2022-07-30T22:28:54.401Z,66.86
2022-07-30T22:31:21.067Z,66.92
2022-07-30T22:33:47.756Z,67.08
2022-07-30T22:36:17.505Z,66.95
2022-07-30T22:38:58.618Z,66.98
2022-07-30T22:41:26.040Z,66.98
2022-07-30T22:43:55.586Z,66.94
2022-07-30T22:46:30.942Z,67.02
2022-07-30T22:48:59.144Z,67.02
2022-07-30T22:51:25.899Z,67.12
2022-07-30T22:54:12.850Z,67.09
2022-07-30T22:56:39.560Z,67.08
2022-07-30T22:59:06.564Z,67.20
2022-07-30T23:01:32.968Z,67.12
2022-07-30T23:03:59.320Z,67.12
2022-07-30T23:06:28.029Z,67.31
2022-07-30T23:08:56.498Z,67.34
2022-07-30T23:11:22.912Z,67.32
2022-07-30T23:12:17.000Z,65.69
2022-07-30T23:12:32.683Z,66.00
2022-07-30T23:13:55.438Z,67.07
2022-07-30T23:16:21.990Z,67.31
2022-07-30T23:18:48.552Z,67.24
2022-07-30T23:21:15.055Z,67.42
2022-07-30T23:23:41.521Z,67.17
2022-07-30T23:26:08.551Z,67.43
2022-07-30T23:28:35.315Z,67.20
2022-07-30T23:31:02.718Z,67.33
2022-07-30T23:33:29.413Z,67.15
2022-07-30T23:35:56.639Z,67.18
2022-07-30T23:38:23.455Z,67.04
2022-07-30T23:40:49.854Z,66.88
2022-07-30T23:43:17.164Z,67.05
2022-07-30T23:45:43.594Z,66.89
2022-07-30T23:48:10.313Z,66.72
2022-07-30T23:50:36.851Z,66.81
2022-07-30T23:53:03.684Z,66.70
2022-07-30T23:55:30.754Z,66.78
2022-07-30T23:57:58.040Z,66.44
